createdAt,value
2018-06-11T00:01:23.275Z,92.50
2018-06-11T00:03:51.418Z,92.60
2018-06-11T00:06:19.573Z,93.00
2018-06-11T00:08:47.724Z,92.70
2018-06-11T00:11:15.859Z,92.20
2018-06-11T00:13:44.004Z,92.10
2018-06-11T00:16:12.132Z,92.00
2018-06-11T00:18:40.287Z,91.80
2018-06-11T00:21:08.421Z,91.60
2018-06-11T00:23:36.588Z,91.40
2018-06-11T00:26:04.742Z,91.70
2018-06-11T00:28:32.897Z,92.30
2018-06-11T00:31:01.028Z,92.10
2018-06-11T00:33:29.175Z,92.60
2018-06-11T00:35:57.301Z,92.40
2018-06-11T00:38:25.431Z,92.20
2018-06-11T00:40:53.571Z,92.10
2018-06-11T00:43:21.747Z,91.80
2018-06-11T00:45:49.872Z,91.80
2018-06-11T00:48:18.516Z,91.70
2018-06-11T00:50:46.651Z,91.00
2018-06-11T00:53:14.785Z,90.90
2018-06-11T00:55:54.232Z,91.30
2018-06-11T00:58:22.370Z,91.30
2018-06-11T01:00:50.494Z,91.50
2018-06-11T01:03:18.676Z,91.60
2018-06-11T01:05:46.780Z,91.20
2018-06-11T01:13:10.595Z,91.60
2018-06-11T01:15:38.678Z,91.90
2018-06-11T01:18:06.767Z,92.20
2018-06-11T01:20:34.876Z,92.20
2018-06-11T01:23:02.952Z,92.30
2018-06-11T01:25:31.048Z,92.40
2018-06-11T01:27:59.156Z,92.20
2018-06-11T01:30:27.251Z,92.50
2018-06-11T01:32:55.414Z,92.60
2018-06-11T01:35:23.507Z,92.90
2018-06-11T01:37:51.604Z,92.80
2018-06-11T01:45:15.521Z,92.40
2018-06-11T01:47:43.655Z,92.90
2018-06-11T01:50:11.828Z,92.70
2018-06-11T01:52:39.951Z,92.90
2018-06-11T01:55:08.093Z,92.50
2018-06-11T01:57:36.629Z,93.10
2018-06-11T02:00:05.592Z,93.20
2018-06-11T02:02:33.716Z,92.90
2018-06-11T02:05:01.851Z,92.80
2018-06-11T02:07:30.024Z,92.90
2018-06-11T02:09:58.155Z,93.20
2018-06-11T02:12:26.282Z,92.80
2018-06-11T02:14:54.416Z,93.10
2018-06-11T02:17:22.960Z,93.10
2018-06-11T02:19:51.081Z,93.60
2018-06-11T02:24:47.095Z,92.90
2018-06-11T02:27:15.244Z,92.90
2018-06-11T02:29:43.367Z,92.70
2018-06-11T02:32:11.516Z,92.90
2018-06-11T02:34:39.642Z,92.40
2018-06-11T02:37:07.786Z,93.00
2018-06-11T02:39:35.904Z,92.70
2018-06-11T02:42:04.049Z,92.60
2018-06-11T02:44:32.179Z,92.40
2018-06-11T02:47:00.264Z,93.10
2018-06-11T02:49:28.365Z,92.90
2018-06-11T02:51:56.466Z,92.70
2018-06-11T02:54:24.611Z,92.90
2018-06-11T02:56:52.723Z,93.00
2018-06-11T02:59:20.800Z,92.80
2018-06-11T03:01:48.904Z,92.30
2018-06-11T03:04:17.065Z,92.30
2018-06-11T03:06:45.216Z,92.30
2018-06-11T03:09:13.323Z,92.30
2018-06-11T03:11:41.408Z,92.10
2018-06-11T03:14:09.507Z,92.70
2018-06-11T03:16:38.512Z,92.80
2018-06-11T03:19:06.600Z,92.70
2018-06-11T03:21:34.773Z,92.80
2018-06-11T03:24:02.862Z,92.90
2018-06-11T03:26:31.022Z,93.00
2018-06-11T03:28:59.098Z,92.80
2018-06-11T03:31:27.265Z,92.60
2018-06-11T03:33:55.460Z,92.20
2018-06-11T03:36:23.554Z,92.40
2018-06-11T03:38:51.643Z,92.30
2018-06-11T03:41:19.747Z,92.30
2018-06-11T03:43:47.856Z,92.50
2018-06-11T03:46:15.939Z,92.50
2018-06-11T03:48:44.030Z,92.20
2018-06-11T03:51:12.123Z,92.40
2018-06-11T03:53:40.206Z,92.20
2018-06-11T03:56:08.284Z,92.10
2018-06-11T03:58:36.369Z,92.40
2018-06-11T04:01:04.464Z,92.50
2018-06-11T04:03:32.552Z,92.00
2018-06-11T04:06:00.724Z,91.80
2018-06-11T04:08:28.851Z,91.90
2018-06-11T04:13:24.861Z,92.40
2018-06-11T04:15:52.997Z,92.40
2018-06-11T04:18:21.084Z,92.20
2018-06-11T04:20:49.168Z,91.80
2018-06-11T04:23:17.307Z,91.80
2018-06-11T04:25:45.399Z,91.50
2018-06-11T04:28:13.521Z,91.30
2018-06-11T04:30:41.595Z,91.60
2018-06-11T04:33:09.675Z,91.90
2018-06-11T04:38:06.612Z,91.30
2018-06-11T04:40:34.700Z,91.40
2018-06-11T04:43:03.334Z,92.20
2018-06-11T04:45:31.523Z,91.80
2018-06-11T04:47:59.669Z,91.50
2018-06-11T04:50:28.458Z,91.80
2018-06-11T04:52:56.805Z,91.50
2018-06-11T04:55:24.925Z,91.90
2018-06-11T04:57:53.073Z,91.40
2018-06-11T05:00:21.179Z,91.50
2018-06-11T05:02:49.320Z,91.40
2018-06-11T05:05:17.463Z,91.80
2018-06-11T05:07:45.595Z,91.90
2018-06-11T05:10:13.736Z,91.30
2018-06-11T05:12:41.864Z,91.40
2018-06-11T05:15:09.986Z,91.50
2018-06-11T05:17:38.878Z,91.50
2018-06-11T05:20:07.022Z,91.80
2018-06-11T05:22:35.153Z,92.10
2018-06-11T05:25:03.300Z,91.90
2018-06-11T05:27:31.442Z,91.50
2018-06-11T05:32:27.488Z,90.90
2018-06-11T05:34:55.683Z,90.70
2018-06-11T05:37:23.768Z,90.70
2018-06-11T05:39:51.925Z,90.60
2018-06-11T05:42:20.016Z,90.60
2018-06-11T05:44:48.108Z,90.40
2018-06-11T05:47:16.210Z,91.00
2018-06-11T05:49:44.312Z,90.90
2018-06-11T05:52:12.400Z,90.70
2018-06-11T05:54:40.511Z,91.00
2018-06-11T05:57:08.608Z,90.30
2018-06-11T05:59:36.820Z,90.50
2018-06-11T06:02:04.894Z,90.80
2018-06-11T06:04:33.067Z,90.90
2018-06-11T06:07:01.160Z,91.10
2018-06-11T06:09:29.247Z,90.90
2018-06-11T06:11:57.347Z,90.80
2018-06-11T06:16:53.361Z,90.90
2018-06-11T06:19:21.459Z,91.00
2018-06-11T06:21:49.531Z,90.90
2018-06-11T06:24:17.629Z,90.40
2018-06-11T06:26:45.831Z,90.30
2018-06-11T06:29:13.864Z,89.90
2018-06-11T06:31:41.965Z,90.00
2018-06-11T06:34:10.120Z,89.80
2018-06-11T06:36:39.068Z,88.80
2018-06-11T06:39:08.525Z,88.20
2018-06-11T06:41:36.908Z,87.80
2018-06-11T06:44:05.066Z,87.60
2018-06-11T06:46:33.166Z,87.80
2018-06-11T06:49:01.237Z,86.80
2018-06-11T06:51:29.332Z,86.90
2018-06-11T06:53:57.426Z,88.40
2018-06-11T06:56:26.025Z,87.80
2018-06-11T06:58:54.156Z,87.60
2018-06-11T07:01:22.239Z,87.70
2018-06-11T07:03:50.332Z,86.40
2018-06-11T07:06:18.428Z,87.10
2018-06-11T07:08:46.505Z,86.10
2018-06-11T07:11:14.608Z,87.20
2018-06-11T07:13:42.721Z,86.80
2018-06-11T07:16:10.829Z,85.80
2018-06-11T07:21:06.974Z,86.60
2018-06-11T07:23:35.067Z,84.40
2018-06-11T07:26:03.198Z,84.30
2018-06-11T07:28:31.297Z,82.90
2018-06-11T07:30:59.376Z,84.00
2018-06-11T07:33:27.482Z,83.60
2018-06-11T07:35:55.569Z,82.90
2018-06-11T07:38:23.675Z,82.90
2018-06-11T07:40:51.764Z,81.90
2018-06-11T07:43:19.903Z,80.20
2018-06-11T07:45:48.030Z,78.80
2018-06-11T07:48:16.176Z,77.90
2018-06-11T07:50:44.302Z,77.00
2018-06-11T07:53:12.436Z,76.90
2018-06-11T07:55:40.562Z,77.70
2018-06-11T07:58:08.701Z,77.20
2018-06-11T08:00:36.897Z,77.70
2018-06-11T08:03:06.275Z,77.90
2018-06-11T08:05:35.087Z,76.80
2018-06-11T08:08:03.539Z,78.30
2018-06-11T08:10:33.933Z,78.20
2018-06-11T08:13:02.065Z,76.60
2018-06-11T08:15:30.428Z,77.00
2018-06-11T08:17:58.644Z,77.60
2018-06-11T08:20:26.976Z,76.00
2018-06-11T08:23:03.963Z,71.30
2018-06-11T08:25:32.058Z,66.50
2018-06-11T08:28:21.723Z,66.90
2018-06-11T08:30:50.271Z,67.60
2018-06-11T08:33:20.536Z,65.20
2018-06-11T08:35:48.643Z,64.60
2018-06-11T08:38:17.066Z,61.80
2018-06-11T08:40:45.209Z,58.20
2018-06-11T08:43:13.444Z,55.30
2018-06-11T08:45:41.497Z,54.80
2018-06-11T08:48:09.697Z,53.20
2018-06-11T08:50:37.819Z,52.60
2018-06-11T08:53:06.320Z,51.40
2018-06-11T08:55:35.211Z,51.00
2018-06-11T08:58:03.340Z,51.80
2018-06-11T09:00:31.452Z,50.30
2018-06-11T09:02:59.579Z,50.50
2018-06-11T09:05:27.725Z,50.70
2018-06-11T09:07:55.827Z,49.30
2018-06-11T09:10:23.967Z,48.20
2018-06-11T09:12:52.084Z,47.90
2018-06-11T09:15:20.229Z,48.20
2018-06-11T09:17:48.347Z,48.20
2018-06-11T09:20:16.485Z,48.30
2018-06-11T09:22:44.639Z,47.90
2018-06-11T09:25:13.432Z,45.90
2018-06-11T09:27:41.558Z,44.10
2018-06-11T09:30:09.716Z,44.10
2018-06-11T09:35:06.663Z,41.70
2018-06-11T09:37:35.096Z,43.10
2018-06-11T09:40:03.214Z,45.30
2018-06-11T09:42:31.327Z,44.70
2018-06-11T09:44:59.403Z,45.30
2018-06-11T09:47:28.290Z,46.40
2018-06-11T09:49:56.436Z,46.90
2018-06-11T09:54:52.491Z,46.50
2018-06-11T09:57:20.585Z,45.70
2018-06-11T09:59:48.655Z,43.90
2018-06-11T10:02:16.775Z,43.50
2018-06-11T10:04:44.863Z,44.90
2018-06-11T10:07:12.953Z,45.60
2018-06-11T10:09:41.043Z,45.30
2018-06-11T10:12:09.159Z,44.10
2018-06-11T10:14:37.644Z,43.80
2018-06-11T10:17:05.736Z,41.90
2018-06-11T10:19:33.865Z,39.60
2018-06-11T10:22:01.952Z,38.50
2018-06-11T10:24:30.052Z,40.80
2018-06-11T10:26:58.144Z,39.80
2018-06-11T10:29:26.228Z,40.30
2018-06-11T10:31:54.319Z,39.40
2018-06-11T10:34:22.507Z,39.00
2018-06-11T10:36:50.675Z,38.00
2018-06-11T10:39:18.744Z,37.70
2018-06-11T10:41:46.812Z,36.80
2018-06-11T10:44:14.958Z,34.50
2018-06-11T10:46:43.083Z,34.30
2018-06-11T10:49:11.233Z,34.80
2018-06-11T10:51:39.624Z,32.50
2018-06-11T10:54:07.736Z,32.70
2018-06-11T10:56:35.867Z,33.60
2018-06-11T10:59:04.010Z,32.90
2018-06-11T11:04:00.084Z,34.10
2018-06-11T11:06:28.196Z,32.30
2018-06-11T11:08:56.343Z,32.80
2018-06-11T11:11:25.009Z,33.70
2018-06-11T11:13:53.143Z,35.20
2018-06-11T11:16:21.291Z,37.20
2018-06-11T11:18:49.434Z,38.60
2018-06-11T11:21:17.603Z,38.50
2018-06-11T11:23:45.739Z,40.10
2018-06-11T11:26:13.906Z,40.70
2018-06-11T11:28:42.052Z,41.20
2018-06-11T11:31:10.190Z,41.30
2018-06-11T11:33:38.335Z,41.40
2018-06-11T11:36:06.479Z,41.40
2018-06-11T11:38:34.597Z,41.10
2018-06-11T11:41:02.723Z,41.40
2018-06-11T11:43:30.873Z,40.40
2018-06-11T11:45:59.013Z,41.10
2018-06-11T11:48:27.125Z,41.70
2018-06-11T11:50:55.243Z,41.90
2018-06-11T11:53:23.379Z,41.90
2018-06-11T11:55:51.549Z,42.20
2018-06-11T11:58:20.116Z,42.40
2018-06-11T12:00:48.986Z,42.50
2018-06-11T12:03:17.547Z,42.10
2018-06-11T12:05:45.675Z,40.80
2018-06-11T12:08:13.816Z,42.20
2018-06-11T12:10:41.943Z,41.70
2018-06-11T12:13:10.183Z,40.90
2018-06-11T12:15:39.500Z,39.20
2018-06-11T12:18:07.663Z,39.70
2018-06-11T12:20:36.470Z,41.10
2018-06-11T12:23:04.583Z,40.90
2018-06-11T12:25:32.703Z,39.90
2018-06-11T12:28:00.956Z,39.90
2018-06-11T12:30:29.096Z,40.50
2018-06-11T12:32:57.222Z,40.60
2018-06-11T12:35:25.339Z,41.40
2018-06-11T12:37:53.467Z,40.80
2018-06-11T12:40:21.623Z,39.60
2018-06-11T12:42:49.711Z,41.50
2018-06-11T12:47:45.728Z,40.30
2018-06-11T12:52:41.790Z,41.30
2018-06-11T12:55:09.866Z,40.70
2018-06-11T12:57:37.963Z,39.80
2018-06-11T13:00:06.157Z,39.40
2018-06-11T13:02:34.358Z,39.50
2018-06-11T13:05:02.441Z,39.60
2018-06-11T13:07:30.532Z,38.70
2018-06-11T13:09:58.628Z,38.30
2018-06-11T13:12:26.712Z,36.90
2018-06-11T13:14:54.798Z,37.80
2018-06-11T13:17:22.897Z,38.00
2018-06-11T13:19:50.963Z,38.60
2018-06-11T13:22:19.961Z,38.70
2018-06-11T13:24:48.075Z,38.80
2018-06-11T13:27:16.176Z,37.60
2018-06-11T13:29:44.260Z,38.00
2018-06-11T13:32:12.338Z,39.00
2018-06-11T13:34:40.479Z,36.60
2018-06-11T13:37:08.561Z,35.20
2018-06-11T13:39:36.635Z,35.50
2018-06-11T13:42:04.737Z,37.30
2018-06-11T13:44:32.843Z,36.90
2018-06-11T13:47:00.921Z,36.60
2018-06-11T13:49:29.012Z,37.60
2018-06-11T13:51:57.105Z,38.00
2018-06-11T13:54:25.270Z,37.30
2018-06-11T13:56:53.389Z,38.50
2018-06-11T13:59:21.427Z,39.40
2018-06-11T14:01:49.520Z,39.90
2018-06-11T14:04:17.621Z,38.60
2018-06-11T14:06:45.738Z,38.00
2018-06-11T14:09:13.831Z,37.80
2018-06-11T14:11:41.918Z,38.10
2018-06-11T14:14:10.009Z,37.90
2018-06-11T14:19:05.968Z,39.40
2018-06-11T14:21:34.050Z,38.00
2018-06-11T14:24:02.140Z,38.80
2018-06-11T14:26:30.228Z,38.70
2018-06-11T14:28:58.349Z,38.50
2018-06-11T14:31:26.456Z,38.80
2018-06-11T14:36:29.086Z,38.30
2018-06-11T14:38:57.182Z,39.30
2018-06-11T14:41:25.276Z,37.80
2018-06-11T14:43:53.407Z,38.70
2018-06-11T14:46:21.739Z,38.70
2018-06-11T14:48:49.863Z,39.50
2018-06-11T14:51:18.012Z,39.30
2018-06-11T14:53:46.136Z,41.30
2018-06-11T14:56:14.275Z,40.40
2018-06-11T14:58:42.417Z,39.70
2018-06-11T15:01:10.569Z,40.00
2018-06-11T15:03:38.815Z,41.20
2018-06-11T15:06:07.692Z,40.90
2018-06-11T15:08:35.863Z,41.00
2018-06-11T15:11:03.994Z,42.20
2018-06-11T15:13:32.174Z,41.90
2018-06-11T15:16:00.314Z,42.50
2018-06-11T15:18:28.448Z,43.00
2018-06-11T15:20:56.588Z,43.40
2018-06-11T15:23:24.749Z,43.50
2018-06-11T15:25:52.848Z,42.80
2018-06-11T15:28:20.987Z,43.50
2018-06-11T15:30:49.128Z,42.70
2018-06-11T15:33:17.250Z,43.10
2018-06-11T15:35:45.379Z,42.80
2018-06-11T15:38:13.512Z,43.30
2018-06-11T15:40:41.657Z,42.70
2018-06-11T15:43:09.757Z,43.80
2018-06-11T15:45:37.839Z,43.20
2018-06-11T15:48:05.935Z,44.40
2018-06-11T15:50:34.007Z,43.40
2018-06-11T15:53:02.088Z,44.30
2018-06-11T15:55:30.147Z,44.20
2018-06-11T15:57:58.240Z,44.60
2018-06-11T16:00:26.362Z,45.50
2018-06-11T16:02:54.578Z,45.60
2018-06-11T16:05:22.657Z,45.50
2018-06-11T16:07:50.731Z,45.20
2018-06-11T16:10:18.812Z,45.90
2018-06-11T16:12:46.896Z,45.50
2018-06-11T16:15:14.980Z,45.00
2018-06-11T16:17:43.078Z,46.20
2018-06-11T16:20:11.170Z,46.10
2018-06-11T16:22:40.228Z,45.40
2018-06-11T16:25:08.302Z,45.70
2018-06-11T16:27:36.395Z,46.10
2018-06-11T16:30:04.516Z,45.40
2018-06-11T16:32:32.614Z,45.10
2018-06-11T16:35:00.672Z,45.20
2018-06-11T16:37:28.776Z,46.20
2018-06-11T16:39:56.868Z,46.10
2018-06-11T16:42:24.999Z,45.40
2018-06-11T16:44:53.111Z,46.30
2018-06-11T16:47:21.260Z,46.10
2018-06-11T16:49:49.402Z,46.10
2018-06-11T16:52:17.520Z,46.90
2018-06-11T16:54:45.676Z,46.60
2018-06-11T16:57:13.796Z,46.60
2018-06-11T16:59:41.939Z,46.30
2018-06-11T17:02:10.052Z,47.20
2018-06-11T17:04:38.188Z,46.30
2018-06-11T17:07:06.347Z,46.60
2018-06-11T17:09:34.495Z,47.10
2018-06-11T17:12:02.628Z,46.60
2018-06-11T17:14:30.776Z,46.50
2018-06-11T17:16:58.892Z,47.30
2018-06-11T17:19:27.036Z,47.10
2018-06-11T17:21:55.198Z,47.30
2018-06-11T17:24:23.380Z,47.40
2018-06-11T17:26:51.520Z,48.00
2018-06-11T17:31:47.554Z,47.50
2018-06-11T17:34:15.669Z,48.10
2018-06-11T17:36:43.804Z,48.50
2018-06-11T17:39:11.944Z,48.90
2018-06-11T17:41:40.560Z,48.60
2018-06-11T17:44:08.730Z,49.10
2018-06-11T17:46:37.098Z,48.60
2018-06-11T17:49:05.206Z,49.00
2018-06-11T17:51:33.392Z,49.20
2018-06-11T17:54:01.489Z,49.10
2018-06-11T17:56:29.592Z,48.50
2018-06-11T17:58:57.730Z,49.20
2018-06-11T18:01:25.852Z,49.80
2018-06-11T18:03:53.985Z,49.00
2018-06-11T18:06:22.177Z,48.30
2018-06-11T18:08:50.313Z,48.40
2018-06-11T18:11:18.538Z,48.30
2018-06-11T18:13:46.680Z,48.20
2018-06-11T18:16:14.820Z,48.10
2018-06-11T18:18:42.948Z,48.20
2018-06-11T18:21:11.069Z,48.30
2018-06-11T18:23:39.175Z,47.50
2018-06-11T18:26:07.306Z,48.30
2018-06-11T18:28:35.485Z,48.40
2018-06-11T18:31:03.649Z,47.80
2018-06-11T18:33:31.776Z,48.90
2018-06-11T18:35:59.915Z,49.20
2018-06-11T18:38:28.032Z,49.00
2018-06-11T18:40:56.159Z,49.50
2018-06-11T18:43:29.967Z,49.40
2018-06-11T18:45:58.094Z,49.50
2018-06-11T18:48:26.220Z,50.00
2018-06-11T18:50:54.335Z,49.90
2018-06-11T18:53:22.500Z,50.30
2018-06-11T18:55:50.624Z,51.00
2018-06-11T18:58:18.760Z,51.60
2018-06-11T19:00:46.907Z,50.50
2018-06-11T19:03:15.036Z,50.50
2018-06-11T19:05:43.311Z,51.40
2018-06-11T19:10:40.071Z,52.10
2018-06-11T19:13:08.286Z,52.60
2018-06-11T19:15:36.512Z,52.40
2018-06-11T19:18:04.866Z,52.30
2018-06-11T19:20:32.970Z,53.10
2018-06-11T19:23:01.095Z,54.10
2018-06-11T19:25:29.211Z,53.00
2018-06-11T19:27:57.355Z,53.50
2018-06-11T19:30:25.478Z,53.60
2018-06-11T19:32:53.725Z,53.70
2018-06-11T19:35:21.961Z,54.00
2018-06-11T19:37:50.010Z,54.70
2018-06-11T19:40:18.133Z,54.10
2018-06-11T19:42:46.331Z,54.60
2018-06-11T19:45:14.518Z,55.10
2018-06-11T19:47:42.701Z,55.20
2018-06-11T19:50:10.906Z,55.60
2018-06-11T19:52:38.908Z,55.10
2018-06-11T19:55:07.123Z,55.30
2018-06-11T19:57:35.273Z,55.20
2018-06-11T20:00:03.695Z,55.90
2018-06-11T20:02:31.851Z,55.50
2018-06-11T20:05:00.020Z,55.70
2018-06-11T20:07:28.153Z,55.60
2018-06-11T20:09:56.308Z,55.80
2018-06-11T20:12:24.427Z,55.40
2018-06-11T20:17:20.451Z,55.50
2018-06-11T20:19:48.572Z,55.50
2018-06-11T20:22:16.717Z,55.60
2018-06-11T20:24:44.848Z,55.70
2018-06-11T20:27:13.015Z,55.70
2018-06-11T20:29:41.107Z,55.50
2018-06-11T20:32:09.266Z,55.70
2018-06-11T20:34:37.372Z,55.90
2018-06-11T20:37:05.501Z,56.30
2018-06-11T20:39:33.641Z,56.60
2018-06-11T20:42:02.272Z,56.20
2018-06-11T20:44:30.392Z,56.30
2018-06-11T20:46:58.534Z,56.50
2018-06-11T20:49:26.644Z,56.50
2018-06-11T20:51:54.781Z,57.50
2018-06-11T20:54:22.967Z,56.60
2018-06-11T20:56:51.089Z,56.60
2018-06-11T20:59:19.241Z,57.00
2018-06-11T21:01:47.371Z,56.80
2018-06-11T21:04:16.057Z,57.30
2018-06-11T21:06:44.990Z,57.10
2018-06-11T21:09:13.105Z,56.90
2018-06-11T21:11:42.139Z,56.90
2018-06-11T21:14:10.282Z,56.90
2018-06-11T21:16:38.420Z,57.60
2018-06-11T21:19:06.575Z,57.00
2018-06-11T21:21:34.760Z,57.70
2018-06-11T21:24:02.925Z,57.60
2018-06-11T21:26:31.006Z,58.00
2018-06-11T21:28:59.149Z,58.20
2018-06-11T21:31:27.279Z,58.00
2018-06-11T21:33:55.386Z,58.30
2018-06-11T21:36:23.504Z,58.60
2018-06-11T21:38:51.657Z,58.50
2018-06-11T21:41:19.784Z,58.80
2018-06-11T21:43:47.940Z,58.80
2018-06-11T21:46:16.065Z,59.60
2018-06-11T21:48:44.196Z,58.40
2018-06-11T21:51:13.138Z,59.40
2018-06-11T21:53:41.322Z,59.40
2018-06-11T21:56:09.484Z,58.90
2018-06-11T21:58:37.625Z,59.00
2018-06-11T22:01:05.747Z,58.50
2018-06-11T22:03:33.945Z,59.50
2018-06-11T22:06:02.033Z,59.70
2018-06-11T22:08:30.286Z,59.70
2018-06-11T22:10:58.502Z,59.90
2018-06-11T22:13:26.563Z,59.70
2018-06-11T22:15:54.751Z,59.60
2018-06-11T22:18:22.876Z,60.00
2018-06-11T22:20:51.019Z,59.90
2018-06-11T22:23:19.162Z,60.00
2018-06-11T22:25:47.290Z,61.10
2018-06-11T22:28:15.433Z,61.70
2018-06-11T22:30:43.574Z,62.80
2018-06-11T22:33:11.707Z,63.00
2018-06-11T22:35:40.344Z,63.10
2018-06-11T22:38:08.469Z,63.80
2018-06-11T22:40:36.636Z,64.30
2018-06-11T22:43:04.772Z,65.70
2018-06-11T22:45:32.864Z,66.00
2018-06-11T22:48:00.942Z,67.10
2018-06-11T22:50:29.039Z,67.00
2018-06-11T22:52:57.111Z,67.70
2018-06-11T22:55:25.206Z,68.90
2018-06-11T22:57:53.304Z,69.20
2018-06-11T23:00:27.509Z,70.00
2018-06-11T23:02:55.706Z,70.60
2018-06-11T23:05:23.792Z,71.20
2018-06-11T23:07:52.229Z,72.00
2018-06-11T23:10:20.302Z,73.10
2018-06-11T23:12:48.399Z,73.40
2018-06-11T23:15:16.510Z,75.20
2018-06-11T23:17:44.573Z,78.40
2018-06-11T23:20:12.695Z,78.40
2018-06-11T23:22:41.129Z,77.80
2018-06-11T23:25:09.269Z,78.90
2018-06-11T23:27:37.353Z,80.60
2018-06-11T23:30:05.521Z,80.70
2018-06-11T23:32:33.582Z,81.70
2018-06-11T23:35:01.677Z,82.30
2018-06-11T23:37:29.759Z,83.60
2018-06-11T23:39:57.839Z,83.40
2018-06-11T23:42:25.930Z,83.70
2018-06-11T23:44:54.030Z,83.40
2018-06-11T23:47:22.103Z,83.50
2018-06-11T23:49:50.346Z,83.90
2018-06-11T23:52:18.419Z,84.20
2018-06-11T23:54:46.513Z,84.30
2018-06-11T23:57:14.588Z,85.00
2018-06-11T23:59:42.662Z,85.40
